sensor_id;sensor_type;location;lat;lon;timestamp;P1;durP1;ratioP1;P2;durP2;ratioP2
62010;SDS011;47967;51.756;10.174;2023-03-21T05:03:31;15.48;;;7.43;;
62010;SDS011;47967;51.756;10.174;2023-03-21T05:07:40;13.02;;;6.55;;
62010;SDS011;47967;51.756;10.174;2023-03-21T05:11:43;14.13;;;7.38;;
62010;SDS011;47967;51.756;10.174;2023-03-21T05:15:47;14.50;;;7.05;;
62010;SDS011;47967;51.756;10.174;2023-03-21T05:19:51;12.30;;;6.83;;
62010;SDS011;47967;51.756;10.174;2023-03-21T05:23:56;14.02;;;6.10;;
62010;SDS011;47967;51.756;10.174;2023-03-21T05:28:05;11.50;;;5.70;;
62010;SDS011;47967;51.756;10.174;2023-03-21T05:32:09;15.45;;;5.88;;
62010;SDS011;47967;51.756;10.174;2023-03-21T05:36:13;11.43;;;5.80;;
62010;SDS011;47967;51.756;10.174;2023-03-21T05:40:17;13.52;;;6.30;;
62010;SDS011;47967;51.756;10.174;2023-03-21T05:44:20;9.57;;;5.53;;
62010;SDS011;47967;51.756;10.174;2023-03-21T05:48:23;12.68;;;5.70;;
62010;SDS011;47967;51.756;10.174;2023-03-21T05:52:55;10.70;;;5.45;;
62010;SDS011;47967;51.756;10.174;2023-03-21T05:56:58;10.80;;;5.28;;
62010;SDS011;47967;51.756;10.174;2023-03-21T06:01:24;10.25;;;5.60;;
62010;SDS011;47967;51.756;10.174;2023-03-21T06:05:38;12.80;;;5.57;;
62010;SDS011;47967;51.756;10.174;2023-03-21T06:09:49;12.15;;;5.72;;
62010;SDS011;47967;51.756;10.174;2023-03-21T06:13:52;12.32;;;5.53;;
62010;SDS011;47967;51.756;10.174;2023-03-21T06:17:56;12.77;;;5.57;;
62010;SDS011;47967;51.756;10.174;2023-03-21T06:21:59;14.50;;;5.80;;
62010;SDS011;47967;51.756;10.174;2023-03-21T06:26:05;14.88;;;5.60;;
62010;SDS011;47967;51.756;10.174;2023-03-21T06:30:09;14.80;;;5.80;;
62010;SDS011;47967;51.756;10.174;2023-03-21T06:34:32;12.53;;;5.53;;
62010;SDS011;47967;51.756;10.174;2023-03-21T06:38:35;17.70;;;6.45;;
62010;SDS011;47967;51.756;10.174;2023-03-21T06:42:40;12.88;;;5.43;;
62010;SDS011;47967;51.756;10.174;2023-03-21T06:46:44;10.82;;;5.32;;
62010;SDS011;47967;51.756;10.174;2023-03-21T06:50:51;15.55;;;6.20;;
62010;SDS011;47967;51.756;10.174;2023-03-21T06:54:57;11.55;;;5.32;;
62010;SDS011;47967;51.756;10.174;2023-03-21T06:59:01;13.67;;;5.47;;
62010;SDS011;47967;51.756;10.174;2023-03-21T07:03:26;10.90;;;5.00;;
62010;SDS011;47967;51.756;10.174;2023-03-21T07:07:31;12.00;;;5.13;;
62010;SDS011;47967;51.756;10.174;2023-03-21T07:11:34;11.77;;;5.67;;
62010;SDS011;47967;51.756;10.174;2023-03-21T07:15:40;12.40;;;4.97;;
62010;SDS011;47967;51.756;10.174;2023-03-21T07:19:43;15.82;;;5.05;;
62010;SDS011;47967;51.756;10.174;2023-03-21T07:23:47;16.45;;;5.85;;
62010;SDS011;47967;51.756;10.174;2023-03-21T07:31:54;10.77;;;4.72;;
62010;SDS011;47967;51.756;10.174;2023-03-21T07:35:57;11.40;;;4.85;;
62010;SDS011;47967;51.756;10.174;2023-03-21T07:40:00;14.00;;;4.50;;
62010;SDS011;47967;51.756;10.174;2023-03-21T07:44:07;11.60;;;4.63;;
62010;SDS011;47967;51.756;10.174;2023-03-21T07:48:11;17.53;;;5.37;;
62010;SDS011;47967;51.756;10.174;2023-03-21T07:52:14;10.15;;;4.40;;
62010;SDS011;47967;51.756;10.174;2023-03-21T07:56:17;13.13;;;4.72;;
62010;SDS011;47967;51.756;10.174;2023-03-21T08:00:21;11.65;;;4.95;;
62010;SDS011;47967;51.756;10.174;2023-03-21T08:04:25;15.35;;;5.30;;
62010;SDS011;47967;51.756;10.174;2023-03-21T08:08:28;16.45;;;6.45;;
62010;SDS011;47967;51.756;10.174;2023-03-21T08:12:30;12.95;;;5.30;;
62010;SDS011;47967;51.756;10.174;2023-03-21T08:16:33;12.18;;;5.47;;
62010;SDS011;47967;51.756;10.174;2023-03-21T08:20:37;11.30;;;4.60;;
62010;SDS011;47967;51.756;10.174;2023-03-21T08:24:39;9.85;;;4.60;;
62010;SDS011;47967;51.756;10.174;2023-03-21T08:28:42;12.27;;;5.30;;
62010;SDS011;47967;51.756;10.174;2023-03-21T08:32:45;11.55;;;5.25;;
62010;SDS011;47967;51.756;10.174;2023-03-21T08:36:48;10.67;;;5.00;;
62010;SDS011;47967;51.756;10.174;2023-03-21T08:40:51;10.40;;;5.03;;
62010;SDS011;47967;51.756;10.174;2023-03-21T08:44:53;10.33;;;4.80;;
62010;SDS011;47967;51.756;10.174;2023-03-21T08:48:56;12.70;;;5.23;;
62010;SDS011;47967;51.756;10.174;2023-03-21T08:53:00;14.93;;;5.67;;
62010;SDS011;47967;51.756;10.174;2023-03-21T09:36:31;13.38;;;5.32;;
62010;SDS011;47967;51.756;10.174;2023-03-21T09:40:39;11.10;;;4.85;;
62010;SDS011;47967;51.756;10.174;2023-03-21T09:44:54;11.98;;;5.40;;
62010;SDS011;47967;51.756;10.174;2023-03-21T09:49:09;12.15;;;5.93;;
62010;SDS011;47967;51.756;10.174;2023-03-21T09:53:21;15.32;;;5.60;;
62010;SDS011;47967;51.756;10.174;2023-03-21T09:57:30;15.02;;;5.95;;
62010;SDS011;47967;51.756;10.174;2023-03-21T10:01:35;12.13;;;5.65;;
62010;SDS011;47967;51.756;10.174;2023-03-21T10:05:42;17.60;;;6.38;;
62010;SDS011;47967;51.756;10.174;2023-03-21T10:09:50;9.43;;;5.43;;
62010;SDS011;47967;51.756;10.174;2023-03-21T10:13:53;14.88;;;5.93;;
62010;SDS011;47967;51.756;10.174;2023-03-21T10:17:59;15.55;;;6.20;;
62010;SDS011;47967;51.756;10.174;2023-03-21T10:22:03;16.83;;;5.97;;
62010;SDS011;47967;51.756;10.174;2023-03-21T10:26:07;12.03;;;5.97;;
62010;SDS011;47967;51.756;10.174;2023-03-21T10:30:17;15.13;;;6.07;;
62010;SDS011;47967;51.756;10.174;2023-03-21T10:34:26;15.88;;;6.20;;
62010;SDS011;47967;51.756;10.174;2023-03-21T10:38:33;14.50;;;5.82;;
62010;SDS011;47967;51.756;10.174;2023-03-21T10:46:48;16.02;;;6.00;;
62010;SDS011;47967;51.756;10.174;2023-03-21T10:50:53;13.73;;;6.25;;
62010;SDS011;47967;51.756;10.174;2023-03-21T10:55:06;15.25;;;6.20;;
62010;SDS011;47967;51.756;10.174;2023-03-21T10:59:19;16.60;;;6.20;;
62010;SDS011;47967;51.756;10.174;2023-03-21T11:03:23;15.30;;;6.15;;
62010;SDS011;47967;51.756;10.174;2023-03-21T11:07:31;20.05;;;6.90;;
62010;SDS011;47967;51.756;10.174;2023-03-21T11:11:35;11.93;;;5.37;;
62010;SDS011;47967;51.756;10.174;2023-03-21T11:15:43;13.75;;;5.38;;
62010;SDS011;47967;51.756;10.174;2023-03-21T11:23:58;13.65;;;5.30;;
62010;SDS011;47967;51.756;10.174;2023-03-21T11:28:04;11.88;;;5.00;;
62010;SDS011;47967;51.756;10.174;2023-03-21T11:32:11;14.00;;;5.18;;
62010;SDS011;47967;51.756;10.174;2023-03-21T11:36:25;13.45;;;5.45;;
62010;SDS011;47967;51.756;10.174;2023-03-21T11:40:35;12.82;;;5.13;;
62010;SDS011;47967;51.756;10.174;2023-03-21T11:44:40;13.93;;;6.03;;
62010;SDS011;47967;51.756;10.174;2023-03-21T11:48:46;14.45;;;5.10;;
62010;SDS011;47967;51.756;10.174;2023-03-21T11:52:53;14.55;;;5.65;;
62010;SDS011;47967;51.756;10.174;2023-03-21T11:57:22;13.38;;;5.60;;
62010;SDS011;47967;51.756;10.174;2023-03-21T12:01:36;12.73;;;5.88;;
62010;SDS011;47967;51.756;10.174;2023-03-21T12:09:56;14.68;;;5.65;;
62010;SDS011;47967;51.756;10.174;2023-03-21T12:14:15;20.77;;;6.13;;
62010;SDS011;47967;51.756;10.174;2023-03-21T12:18:29;14.18;;;5.65;;
62010;SDS011;47967;51.756;10.174;2023-03-21T12:22:46;11.43;;;5.68;;
62010;SDS011;47967;51.756;10.174;2023-03-21T12:26:58;11.32;;;5.20;;
62010;SDS011;47967;51.756;10.174;2023-03-21T12:31:11;17.48;;;5.80;;
62010;SDS011;47967;51.756;10.174;2023-03-21T12:35:31;13.95;;;5.68;;
62010;SDS011;47967;51.756;10.174;2023-03-21T12:39:47;15.95;;;5.88;;
62010;SDS011;47967;51.756;10.174;2023-03-21T12:43:52;14.32;;;5.65;;
62010;SDS011;47967;51.756;10.174;2023-03-21T12:48:02;10.70;;;5.13;;
62010;SDS011;47967;51.756;10.174;2023-03-21T12:52:18;10.93;;;5.63;;
62010;SDS011;47967;51.756;10.174;2023-03-21T12:56:27;13.65;;;5.53;;
62010;SDS011;47967;51.756;10.174;2023-03-21T13:00:33;11.82;;;5.50;;
62010;SDS011;47967;51.756;10.174;2023-03-21T13:04:41;12.25;;;5.38;;
62010;SDS011;47967;51.756;10.174;2023-03-21T13:08:49;13.60;;;5.32;;
62010;SDS011;47967;51.756;10.174;2023-03-21T13:13:02;14.45;;;5.80;;
62010;SDS011;47967;51.756;10.174;2023-03-21T13:17:10;11.33;;;5.13;;
62010;SDS011;47967;51.756;10.174;2023-03-21T13:21:22;15.20;;;5.32;;
62010;SDS011;47967;51.756;10.174;2023-03-21T13:25:36;10.47;;;5.40;;
62010;SDS011;47967;51.756;10.174;2023-03-21T13:29:45;13.82;;;4.90;;
62010;SDS011;47967;51.756;10.174;2023-03-21T13:33:50;12.20;;;5.30;;
62010;SDS011;47967;51.756;10.174;2023-03-21T13:37:55;11.38;;;5.00;;
62010;SDS011;47967;51.756;10.174;2023-03-21T13:42:03;12.00;;;5.50;;
62010;SDS011;47967;51.756;10.174;2023-03-21T13:46:09;10.43;;;6.10;;
62010;SDS011;47967;51.756;10.174;2023-03-21T13:50:19;13.02;;;5.40;;
62010;SDS011;47967;51.756;10.174;2023-03-21T13:54:47;12.88;;;6.00;;
62010;SDS011;47967;51.756;10.174;2023-03-21T13:58:56;9.82;;;5.35;;
62010;SDS011;47967;51.756;10.174;2023-03-21T14:03:06;13.48;;;5.68;;
62010;SDS011;47967;51.756;10.174;2023-03-21T14:07:11;17.10;;;6.57;;
62010;SDS011;47967;51.756;10.174;2023-03-21T14:11:20;16.88;;;6.00;;
62010;SDS011;47967;51.756;10.174;2023-03-21T14:15:24;13.35;;;6.13;;
62010;SDS011;47967;51.756;10.174;2023-03-21T14:19:32;14.98;;;6.30;;
62010;SDS011;47967;51.756;10.174;2023-03-21T14:23:36;11.50;;;5.82;;
62010;SDS011;47967;51.756;10.174;2023-03-21T14:27:40;13.95;;;5.88;;
62010;SDS011;47967;51.756;10.174;2023-03-21T14:31:44;11.60;;;5.80;;
62010;SDS011;47967;51.756;10.174;2023-03-21T14:35:50;15.35;;;6.07;;
62010;SDS011;47967;51.756;10.174;2023-03-21T14:39:55;12.50;;;5.80;;
62010;SDS011;47967;51.756;10.174;2023-03-21T14:44:01;13.75;;;6.32;;
62010;SDS011;47967;51.756;10.174;2023-03-21T14:48:13;10.38;;;5.97;;
62010;SDS011;47967;51.756;10.174;2023-03-21T14:52:21;14.18;;;6.22;;
62010;SDS011;47967;51.756;10.174;2023-03-21T14:56:26;12.27;;;6.15;;
62010;SDS011;47967;51.756;10.174;2023-03-21T15:00:29;11.23;;;6.27;;
62010;SDS011;47967;51.756;10.174;2023-03-21T15:04:32;15.10;;;5.97;;
62010;SDS011;47967;51.756;10.174;2023-03-21T15:08:36;15.83;;;6.13;;
62010;SDS011;47967;51.756;10.174;2023-03-21T15:12:48;16.20;;;6.43;;
62010;SDS011;47967;51.756;10.174;2023-03-21T15:16:51;15.15;;;6.63;;
62010;SDS011;47967;51.756;10.174;2023-03-21T15:20:55;10.77;;;6.45;;
62010;SDS011;47967;51.756;10.174;2023-03-21T15:25:05;12.43;;;6.35;;
62010;SDS011;47967;51.756;10.174;2023-03-21T15:29:10;13.85;;;5.85;;
62010;SDS011;47967;51.756;10.174;2023-03-21T15:33:14;10.85;;;5.68;;
62010;SDS011;47967;51.756;10.174;2023-03-21T15:41:27;17.92;;;6.63;;
62010;SDS011;47967;51.756;10.174;2023-03-21T15:45:31;14.88;;;5.90;;
62010;SDS011;47967;51.756;10.174;2023-03-21T15:49:36;13.73;;;5.90;;
62010;SDS011;47967;51.756;10.174;2023-03-21T15:53:41;12.32;;;5.43;;
62010;SDS011;47967;51.756;10.174;2023-03-21T15:57:45;12.77;;;5.45;;
62010;SDS011;47967;51.756;10.174;2023-03-21T16:01:50;11.65;;;5.38;;
62010;SDS011;47967;51.756;10.174;2023-03-21T16:06:06;10.88;;;4.90;;
62010;SDS011;47967;51.756;10.174;2023-03-21T16:10:23;11.00;;;5.20;;
62010;SDS011;47967;51.756;10.174;2023-03-21T16:14:30;10.77;;;5.28;;
62010;SDS011;47967;51.756;10.174;2023-03-21T16:18:32;9.02;;;5.70;;
62010;SDS011;47967;51.756;10.174;2023-03-21T16:22:35;12.27;;;5.88;;
62010;SDS011;47967;51.756;10.174;2023-03-21T16:26:40;11.30;;;6.23;;
62010;SDS011;47967;51.756;10.174;2023-03-21T16:30:47;13.40;;;6.03;;
62010;SDS011;47967;51.756;10.174;2023-03-21T16:34:49;12.48;;;6.03;;
62010;SDS011;47967;51.756;10.174;2023-03-21T16:38:54;10.07;;;4.45;;
62010;SDS011;47967;51.756;10.174;2023-03-21T16:42:57;11.95;;;5.05;;
62010;SDS011;47967;51.756;10.174;2023-03-21T16:47:01;11.27;;;5.47;;
62010;SDS011;47967;51.756;10.174;2023-03-21T16:51:03;13.73;;;5.90;;
62010;SDS011;47967;51.756;10.174;2023-03-21T16:55:06;9.57;;;5.15;;
62010;SDS011;47967;51.756;10.174;2023-03-21T16:59:10;10.95;;;5.40;;
62010;SDS011;47967;51.756;10.174;2023-03-21T17:03:15;9.77;;;5.40;;
62010;SDS011;47967;51.756;10.174;2023-03-21T17:07:19;12.27;;;5.47;;
62010;SDS011;47967;51.756;10.174;2023-03-21T17:11:22;11.33;;;5.53;;
62010;SDS011;47967;51.756;10.174;2023-03-21T17:15:27;11.75;;;5.65;;
62010;SDS011;47967;51.756;10.174;2023-03-21T17:19:31;13.30;;;5.97;;
62010;SDS011;47967;51.756;10.174;2023-03-21T17:23:33;12.82;;;5.97;;
62010;SDS011;47967;51.756;10.174;2023-03-21T17:27:36;12.77;;;6.20;;
62010;SDS011;47967;51.756;10.174;2023-03-21T17:31:38;13.73;;;6.50;;
62010;SDS011;47967;51.756;10.174;2023-03-21T17:35:42;14.40;;;6.70;;
62010;SDS011;47967;51.756;10.174;2023-03-21T17:39:45;11.25;;;6.40;;
62010;SDS011;47967;51.756;10.174;2023-03-21T17:43:48;14.38;;;6.22;;
62010;SDS011;47967;51.756;10.174;2023-03-21T17:47:51;9.23;;;5.30;;
62010;SDS011;47967;51.756;10.174;2023-03-21T17:51:56;10.80;;;5.97;;
62010;SDS011;47967;51.756;10.174;2023-03-21T17:55:58;10.93;;;6.57;;
62010;SDS011;47967;51.756;10.174;2023-03-21T18:00:01;14.57;;;7.07;;
62010;SDS011;47967;51.756;10.174;2023-03-21T18:04:12;11.77;;;6.25;;
62010;SDS011;47967;51.756;10.174;2023-03-21T18:08:15;12.03;;;6.90;;
62010;SDS011;47967;51.756;10.174;2023-03-21T18:12:18;12.07;;;6.80;;
62010;SDS011;47967;51.756;10.174;2023-03-21T18:16:21;13.80;;;7.40;;
62010;SDS011;47967;51.756;10.174;2023-03-21T18:20:25;9.88;;;6.60;;
62010;SDS011;47967;51.756;10.174;2023-03-21T18:24:50;13.27;;;6.40;;
62010;SDS011;47967;51.756;10.174;2023-03-21T18:28:53;10.48;;;5.68;;
62010;SDS011;47967;51.756;10.174;2023-03-21T18:33:16;10.00;;;5.63;;
62010;SDS011;47967;51.756;10.174;2023-03-21T18:37:19;13.18;;;7.07;;
62010;SDS011;47967;51.756;10.174;2023-03-21T18:41:23;8.63;;;5.53;;
62010;SDS011;47967;51.756;10.174;2023-03-21T18:45:26;10.35;;;5.60;;
62010;SDS011;47967;51.756;10.174;2023-03-21T18:49:29;11.02;;;5.93;;
62010;SDS011;47967;51.756;10.174;2023-03-21T18:53:51;9.68;;;5.70;;
62010;SDS011;47967;51.756;10.174;2023-03-21T18:57:56;9.13;;;5.45;;
62010;SDS011;47967;51.756;10.174;2023-03-21T19:01:58;12.02;;;6.18;;
62010;SDS011;47967;51.756;10.174;2023-03-21T19:06:01;9.27;;;5.05;;
62010;SDS011;47967;51.756;10.174;2023-03-21T19:10:05;6.57;;;4.50;;
62010;SDS011;47967;51.756;10.174;2023-03-21T19:14:22;7.45;;;4.80;;
62010;SDS011;47967;51.756;10.174;2023-03-21T19:18:24;7.70;;;4.10;;
62010;SDS011;47967;51.756;10.174;2023-03-21T19:22:47;8.75;;;4.72;;
62010;SDS011;47967;51.756;10.174;2023-03-21T19:26:49;7.03;;;4.40;;
62010;SDS011;47967;51.756;10.174;2023-03-21T19:30:53;9.10;;;4.60;;
62010;SDS011;47967;51.756;10.174;2023-03-21T19:34:56;11.63;;;4.80;;
62010;SDS011;47967;51.756;10.174;2023-03-21T19:38:59;8.00;;;4.47;;
62010;SDS011;47967;51.756;10.174;2023-03-21T19:43:01;11.07;;;5.10;;
62010;SDS011;47967;51.756;10.174;2023-03-21T19:47:25;8.10;;;4.18;;
62010;SDS011;47967;51.756;10.174;2023-03-21T19:51:28;7.20;;;3.65;;
62010;SDS011;47967;51.756;10.174;2023-03-21T19:55:32;5.88;;;4.00;;
62010;SDS011;47967;51.756;10.174;2023-03-21T19:59:35;9.70;;;6.18;;
62010;SDS011;47967;51.756;10.174;2023-03-21T20:03:40;8.15;;;4.38;;
62010;SDS011;47967;51.756;10.174;2023-03-21T20:07:44;9.35;;;5.00;;
62010;SDS011;47967;51.756;10.174;2023-03-21T20:11:47;11.02;;;5.78;;
62010;SDS011;47967;51.756;10.174;2023-03-21T20:15:50;9.48;;;5.07;;
62010;SDS011;47967;51.756;10.174;2023-03-21T20:19:57;7.95;;;5.35;;
62010;SDS011;47967;51.756;10.174;2023-03-21T20:24:00;11.13;;;5.25;;
62010;SDS011;47967;51.756;10.174;2023-03-21T20:28:03;10.27;;;5.55;;
62010;SDS011;47967;51.756;10.174;2023-03-21T20:32:17;9.90;;;4.82;;
62010;SDS011;47967;51.756;10.174;2023-03-21T20:36:21;9.57;;;6.15;;
62010;SDS011;47967;51.756;10.174;2023-03-21T20:40:43;9.90;;;5.85;;
62010;SDS011;47967;51.756;10.174;2023-03-21T20:44:45;11.83;;;6.13;;
62010;SDS011;47967;51.756;10.174;2023-03-21T20:53:03;11.90;;;5.78;;
62010;SDS011;47967;51.756;10.174;2023-03-21T20:57:08;11.38;;;6.03;;
62010;SDS011;47967;51.756;10.174;2023-03-21T21:01:10;10.68;;;6.32;;
62010;SDS011;47967;51.756;10.174;2023-03-21T21:05:15;12.85;;;6.22;;
62010;SDS011;47967;51.756;10.174;2023-03-21T21:09:33;11.43;;;6.35;;
62010;SDS011;47967;51.756;10.174;2023-03-21T21:13:36;9.27;;;5.68;;
62010;SDS011;47967;51.756;10.174;2023-03-21T21:17:39;11.68;;;6.50;;
62010;SDS011;47967;51.756;10.174;2023-03-21T21:22:02;10.23;;;6.07;;
62010;SDS011;47967;51.756;10.174;2023-03-21T21:26:07;10.27;;;6.25;;
62010;SDS011;47967;51.756;10.174;2023-03-21T21:30:10;11.05;;;6.47;;
62010;SDS011;47967;51.756;10.174;2023-03-21T21:34:14;10.27;;;6.45;;
62010;SDS011;47967;51.756;10.174;2023-03-21T21:38:18;13.68;;;7.25;;
62010;SDS011;47967;51.756;10.174;2023-03-21T21:42:22;11.80;;;6.63;;
62010;SDS011;47967;51.756;10.174;2023-03-21T21:46:25;12.13;;;7.63;;
62010;SDS011;47967;51.756;10.174;2023-03-21T21:50:27;11.53;;;7.00;;
62010;SDS011;47967;51.756;10.174;2023-03-21T21:54:30;11.83;;;7.37;;
62010;SDS011;47967;51.756;10.174;2023-03-21T21:58:35;11.40;;;7.07;;
